createdAt,value
2019-06-01T00:00:11.029Z,21.68
2019-06-01T00:02:31.251Z,20.68
2019-06-01T00:04:58.830Z,19.57
2019-06-01T00:07:26.442Z,21.70
2019-06-01T00:09:55.356Z,21.35
2019-06-01T00:12:24.203Z,20.23
2019-06-01T00:14:51.759Z,19.30
2019-06-01T00:17:19.954Z,21.17
2019-06-01T00:19:48.276Z,20.77
2019-06-01T00:22:18.511Z,21.00
2019-06-01T00:24:46.434Z,20.08
2019-06-01T00:27:18.973Z,21.70
2019-06-01T00:29:46.823Z,19.00
2019-06-01T00:32:15.037Z,20.52
2019-06-01T00:34:43.617Z,19.70
2019-06-01T00:37:11.991Z,19.98
2019-06-01T00:39:43.709Z,20.48
2019-06-01T00:42:11.786Z,18.15
2019-06-01T00:44:39.648Z,18.55
2019-06-01T00:47:07.334Z,21.05
2019-06-01T00:49:34.910Z,21.07
2019-06-01T00:52:02.772Z,19.92
2019-06-01T00:54:30.688Z,18.75
2019-06-01T00:56:58.567Z,20.08
2019-06-01T00:59:28.613Z,19.45
2019-06-01T01:01:56.373Z,17.37
2019-06-01T01:04:24.412Z,19.25
2019-06-01T01:06:52.865Z,18.75
2019-06-01T01:09:20.681Z,19.00
2019-06-01T01:11:49.180Z,19.87
2019-06-01T01:14:16.907Z,19.95
2019-06-01T01:16:45.485Z,17.95
2019-06-01T01:19:13.478Z,20.55
2019-06-01T01:21:41.507Z,22.27
2019-06-01T01:24:09.185Z,21.10
2019-06-01T01:26:37.037Z,19.90
2019-06-01T01:29:06.945Z,19.35
2019-06-01T01:31:37.709Z,20.05
2019-06-01T01:34:05.409Z,20.97
2019-06-01T01:36:33.207Z,19.45
2019-06-01T01:39:02.098Z,19.42
2019-06-01T01:41:31.599Z,18.67
2019-06-01T01:43:59.489Z,18.87
2019-06-01T01:46:27.476Z,18.07
2019-06-01T01:48:56.138Z,20.45
2019-06-01T01:51:23.909Z,18.45
2019-06-01T01:53:52.991Z,18.37
2019-06-01T01:56:20.871Z,20.85
2019-06-01T01:58:48.558Z,18.80
2019-06-01T02:01:22.628Z,19.82
2019-06-01T02:03:46.087Z,20.37
2019-06-01T02:06:14.282Z,19.55
2019-06-01T02:08:41.900Z,20.95
2019-06-01T02:11:13.405Z,20.08
2019-06-01T02:13:41.886Z,19.98
2019-06-01T02:16:10.107Z,19.00
2019-06-01T02:18:38.693Z,18.30
2019-06-01T02:21:06.475Z,18.67
2019-06-01T02:23:34.095Z,18.90
2019-06-01T02:26:03.295Z,16.67
2019-06-01T02:28:31.734Z,16.57
2019-06-01T02:31:00.011Z,19.85
2019-06-01T02:33:27.822Z,19.73
2019-06-01T02:35:56.348Z,19.45
2019-06-01T02:38:24.819Z,18.57
2019-06-01T02:40:54.846Z,17.55
2019-06-01T02:43:25.096Z,18.23
2019-06-01T02:45:53.335Z,20.00
2019-06-01T02:48:21.225Z,18.82
2019-06-01T02:50:49.069Z,20.43
2019-06-01T02:53:17.478Z,17.92
2019-06-01T02:55:47.658Z,18.37
2019-06-01T02:58:17.271Z,16.82
2019-06-01T03:01:33.570Z,18.98
2019-06-01T03:04:05.335Z,18.87
2019-06-01T03:06:35.226Z,19.45
2019-06-01T03:09:06.751Z,18.62
2019-06-01T03:11:37.494Z,19.10
2019-06-01T03:14:09.184Z,17.70
2019-06-01T03:16:40.196Z,17.60
2019-06-01T03:19:09.558Z,17.25
2019-06-01T03:21:37.330Z,19.15
2019-06-01T03:24:08.178Z,17.05
2019-06-01T03:26:41.088Z,18.55
2019-06-01T03:29:14.614Z,17.82
2019-06-01T03:31:42.291Z,17.15
2019-06-01T03:34:11.450Z,17.27
2019-06-01T03:36:39.446Z,18.77
2019-06-01T03:39:08.229Z,17.95
2019-06-01T03:41:37.421Z,17.98
2019-06-01T03:44:06.448Z,17.75
2019-06-01T03:46:36.519Z,18.73
2019-06-01T03:49:05.790Z,19.10
2019-06-01T03:51:33.425Z,18.50
2019-06-01T03:54:05.025Z,19.77
2019-06-01T03:56:32.257Z,20.48
2019-06-01T03:59:01.000Z,19.10
2019-06-01T04:01:31.246Z,18.05
2019-06-01T04:04:01.013Z,19.85
2019-06-01T04:06:30.369Z,17.42
2019-06-01T04:09:01.655Z,18.27
2019-06-01T04:11:31.328Z,18.17
2019-06-01T04:13:59.278Z,17.95
2019-06-01T04:16:26.871Z,18.10
2019-06-01T04:18:55.796Z,16.48
2019-06-01T04:21:23.380Z,16.80
2019-06-01T04:23:51.017Z,16.65
2019-06-01T04:26:18.965Z,16.70
2019-06-01T04:28:59.082Z,15.23
2019-06-01T04:31:29.724Z,16.23
2019-06-01T04:33:57.786Z,17.20
2019-06-01T04:36:27.973Z,16.90
2019-06-01T04:38:55.609Z,15.43
2019-06-01T04:41:23.403Z,15.85
2019-06-01T04:43:50.967Z,14.65
2019-06-01T04:46:19.843Z,15.55
2019-06-01T04:48:47.438Z,15.13
2019-06-01T04:51:15.047Z,15.50
2019-06-01T04:53:43.703Z,14.93
2019-06-01T04:56:11.389Z,15.20
2019-06-01T04:58:39.423Z,15.30
2019-06-01T05:01:07.142Z,15.08
2019-06-01T05:03:35.064Z,14.55
2019-06-01T05:06:05.431Z,16.15
2019-06-01T05:08:33.938Z,15.00
2019-06-01T05:11:05.302Z,14.10
2019-06-01T05:13:32.108Z,15.53
2019-06-01T05:15:59.696Z,15.18
2019-06-01T05:18:27.336Z,16.25
2019-06-01T05:20:54.953Z,15.23
2019-06-01T05:23:22.893Z,13.75
2019-06-01T05:25:53.293Z,12.98
2019-06-01T05:28:20.659Z,15.08
2019-06-01T05:30:48.481Z,14.93
2019-06-01T05:33:32.013Z,14.73
2019-06-01T05:35:46.956Z,14.80
2019-06-01T05:38:14.793Z,15.75
2019-06-01T05:40:42.395Z,14.80
2019-06-01T05:43:14.133Z,14.23
2019-06-01T05:45:40.137Z,14.85
2019-06-01T05:48:08.370Z,14.95
2019-06-01T05:50:36.412Z,15.25
2019-06-01T05:53:04.237Z,16.32
2019-06-01T05:55:32.195Z,14.90
2019-06-01T05:57:59.991Z,14.13
2019-06-01T06:00:46.176Z,15.70
2019-06-01T06:03:16.178Z,13.75
2019-06-01T06:05:43.831Z,14.50
2019-06-01T06:08:12.776Z,14.68
2019-06-01T06:10:41.035Z,14.40
2019-06-01T06:13:09.657Z,14.20
2019-06-01T06:15:37.262Z,16.40
2019-06-01T06:18:05.108Z,14.30
2019-06-01T06:20:33.030Z,13.30
2019-06-01T06:23:00.775Z,13.70
2019-06-01T06:25:31.737Z,13.83
2019-06-01T06:27:58.899Z,17.50
2019-06-01T06:30:27.638Z,15.90
2019-06-01T06:32:56.950Z,14.68
2019-06-01T06:35:24.588Z,14.45
2019-06-01T06:37:52.190Z,14.45
2019-06-01T06:40:20.290Z,12.93
2019-06-01T06:42:48.252Z,14.28
2019-06-01T06:45:16.597Z,14.33
2019-06-01T06:47:44.323Z,14.58
2019-06-01T06:50:17.508Z,12.93
2019-06-01T06:52:45.724Z,13.65
2019-06-01T06:55:13.687Z,13.65
2019-06-01T06:57:41.526Z,13.20
2019-06-01T07:00:09.738Z,14.47
2019-06-01T07:02:37.758Z,12.90
2019-06-01T07:05:06.513Z,13.85
2019-06-01T07:07:36.502Z,13.38
2019-06-01T07:10:13.808Z,13.38
2019-06-01T07:12:41.838Z,15.25
2019-06-01T07:15:09.624Z,14.40
2019-06-01T07:17:38.381Z,11.63
2019-06-01T07:20:07.358Z,14.73
2019-06-01T07:22:36.162Z,14.47
2019-06-01T07:25:04.560Z,14.40
2019-06-01T07:27:32.596Z,13.80
2019-06-01T07:30:00.778Z,14.40
2019-06-01T07:32:28.704Z,13.10
2019-06-01T07:35:01.841Z,14.17
2019-06-01T07:37:39.112Z,14.43
2019-06-01T07:40:13.587Z,13.70
2019-06-01T07:42:41.326Z,13.30
2019-06-01T07:45:09.037Z,13.93
2019-06-01T07:47:36.639Z,16.20
2019-06-01T07:50:05.147Z,14.37
2019-06-01T07:52:33.859Z,13.40
2019-06-01T07:55:01.452Z,13.87
2019-06-01T07:57:29.854Z,12.37
2019-06-01T07:59:57.919Z,11.43
2019-06-01T08:02:33.095Z,13.30
2019-06-01T08:05:01.482Z,12.80
2019-06-01T08:07:32.803Z,14.07
2019-06-01T08:10:07.886Z,13.70
2019-06-01T08:12:35.499Z,13.60
2019-06-01T08:15:04.298Z,14.30
2019-06-01T08:17:32.884Z,15.07
2019-06-01T08:20:00.679Z,13.03
2019-06-01T08:22:30.070Z,12.83
2019-06-01T08:24:57.888Z,12.43
2019-06-01T08:27:26.477Z,13.37
2019-06-01T08:29:54.470Z,14.20
2019-06-01T08:32:30.788Z,17.77
2019-06-01T08:35:07.964Z,13.17
2019-06-01T08:37:29.362Z,14.83
2019-06-01T08:39:59.297Z,12.60
2019-06-01T08:42:27.468Z,14.00
2019-06-01T08:44:55.090Z,13.93
2019-06-01T08:47:27.951Z,14.60
2019-06-01T08:49:55.748Z,12.87
2019-06-01T08:52:25.866Z,12.87
2019-06-01T08:54:54.586Z,11.77
2019-06-01T08:57:22.289Z,13.43
2019-06-01T08:59:49.943Z,12.67
2019-06-01T09:02:18.608Z,12.47
2019-06-01T09:04:46.329Z,13.60
2019-06-01T09:07:16.182Z,13.93
2019-06-01T09:09:43.739Z,13.80
2019-06-01T09:12:11.583Z,12.27
2019-06-01T09:14:39.353Z,12.73
2019-06-01T09:17:10.108Z,12.33
2019-06-01T09:19:38.251Z,13.17
2019-06-01T09:22:08.840Z,13.43
2019-06-01T09:24:36.654Z,11.67
2019-06-01T09:27:05.276Z,12.07
2019-06-01T09:29:34.004Z,11.47
2019-06-01T09:32:03.638Z,12.63
2019-06-01T09:34:32.446Z,11.53
2019-06-01T09:37:01.228Z,11.53
2019-06-01T09:39:29.176Z,12.47
2019-06-01T09:41:58.564Z,11.47
2019-06-01T09:44:27.270Z,11.83
2019-06-01T09:46:55.224Z,12.57
2019-06-01T09:49:23.059Z,10.80
2019-06-01T09:51:52.090Z,11.73
2019-06-01T09:54:19.981Z,11.10
2019-06-01T09:56:49.028Z,11.93
2019-06-01T09:59:16.622Z,11.20
2019-06-01T10:01:45.821Z,11.80
2019-06-01T10:04:13.518Z,11.20
2019-06-01T10:06:41.508Z,11.47
2019-06-01T10:09:09.621Z,12.10
2019-06-01T10:11:38.111Z,12.10
2019-06-01T10:14:06.239Z,11.67
2019-06-01T10:16:34.563Z,11.27
2019-06-01T10:19:04.242Z,11.87
2019-06-01T10:21:34.069Z,10.80
2019-06-01T10:24:02.323Z,12.60
2019-06-01T10:26:31.303Z,11.80
2019-06-01T10:28:59.505Z,11.57
2019-06-01T10:31:27.074Z,11.23
2019-06-01T10:33:54.786Z,11.73
2019-06-01T10:36:22.724Z,10.20
2019-06-01T10:38:50.589Z,12.43
2019-06-01T10:41:18.469Z,11.43
2019-06-01T10:43:46.285Z,12.30
2019-06-01T10:46:13.944Z,11.63
2019-06-01T10:48:42.211Z,11.37
2019-06-01T10:51:10.262Z,12.50
2019-06-01T10:53:41.840Z,11.87
2019-06-01T10:56:13.023Z,10.70
2019-06-01T10:58:57.610Z,10.27
2019-06-01T11:01:11.649Z,12.70
2019-06-01T11:03:40.809Z,10.40
2019-06-01T11:06:09.300Z,10.50
2019-06-01T11:08:37.308Z,9.60
2019-06-01T11:11:05.164Z,11.67
2019-06-01T11:13:34.956Z,11.53
2019-06-01T11:16:03.043Z,11.67
2019-06-01T11:18:30.817Z,11.57
2019-06-01T11:20:58.585Z,11.13
2019-06-01T11:23:26.551Z,9.80
2019-06-01T11:25:54.405Z,10.87
2019-06-01T11:28:23.037Z,10.20
2019-06-01T11:30:50.922Z,10.50
2019-06-01T11:33:18.499Z,10.87
2019-06-01T11:35:46.339Z,10.43
2019-06-01T11:38:14.007Z,11.30
2019-06-01T11:40:42.801Z,9.17
2019-06-01T11:43:13.358Z,9.90
2019-06-01T11:45:45.210Z,9.80
2019-06-01T11:48:13.265Z,9.17
2019-06-01T11:50:43.105Z,10.10
2019-06-01T11:53:11.186Z,9.60
2019-06-01T11:55:39.199Z,8.40
2019-06-01T11:58:07.284Z,10.20
2019-06-01T12:00:37.662Z,9.63
2019-06-01T12:03:05.582Z,9.77
2019-06-01T12:05:33.395Z,9.40
2019-06-01T12:08:04.729Z,8.70
2019-06-01T12:10:33.025Z,9.90
2019-06-01T12:13:01.754Z,10.00
2019-06-01T12:15:29.495Z,8.53
2019-06-01T12:17:57.216Z,9.53
2019-06-01T12:20:24.858Z,9.63
2019-06-01T12:22:52.508Z,9.43
2019-06-01T12:25:20.517Z,9.13
2019-06-01T12:27:51.045Z,9.33
2019-06-01T12:30:19.867Z,10.43
2019-06-01T12:32:50.492Z,8.17
2019-06-01T12:35:18.555Z,9.60
2019-06-01T12:38:04.378Z,9.90
2019-06-01T12:40:17.360Z,9.10
2019-06-01T12:42:48.124Z,9.30
2019-06-01T12:45:21.681Z,8.53
2019-06-01T12:47:49.669Z,9.03
2019-06-01T12:50:17.204Z,10.47
2019-06-01T12:52:44.898Z,9.27
2019-06-01T12:55:13.620Z,9.10
2019-06-01T12:57:41.191Z,14.33
2019-06-01T13:00:09.271Z,8.23
2019-06-01T13:02:37.256Z,49.00
2019-06-01T13:05:06.269Z,44.07
2019-06-01T13:07:34.200Z,20.10
2019-06-01T13:10:02.108Z,11.60
2019-06-01T13:12:30.022Z,12.03
2019-06-01T13:14:58.239Z,11.40
2019-06-01T13:17:27.362Z,12.00
2019-06-01T13:19:58.518Z,14.47
2019-06-01T13:22:28.173Z,15.07
2019-06-01T13:24:55.784Z,11.30
2019-06-01T13:27:26.480Z,12.10
2019-06-01T13:29:54.465Z,10.33
2019-06-01T13:32:23.520Z,11.80
2019-06-01T13:34:51.442Z,11.53
2019-06-01T13:37:21.055Z,10.60
2019-06-01T13:39:54.219Z,11.47
2019-06-01T13:42:19.147Z,10.10
2019-06-01T13:44:58.488Z,13.40
2019-06-01T13:47:26.168Z,11.43
2019-06-01T13:49:54.711Z,11.23
2019-06-01T13:52:23.717Z,13.30
2019-06-01T13:54:52.859Z,11.13
2019-06-01T13:57:20.941Z,11.60
2019-06-01T13:59:48.904Z,11.20
2019-06-01T14:02:19.529Z,11.13
2019-06-01T14:04:47.789Z,12.70
2019-06-01T14:07:15.786Z,10.00
2019-06-01T14:09:45.358Z,12.20
2019-06-01T14:12:22.420Z,11.33
2019-06-01T14:14:51.498Z,11.07
2019-06-01T14:17:19.500Z,11.07
2019-06-01T14:19:47.648Z,10.40
2019-06-01T14:22:16.063Z,11.40
2019-06-01T14:24:45.996Z,11.43
2019-06-01T14:27:13.511Z,11.20
2019-06-01T14:29:41.239Z,12.40
2019-06-01T14:32:11.273Z,11.13
2019-06-01T14:34:38.939Z,11.90
2019-06-01T14:37:08.312Z,11.90
2019-06-01T14:39:35.907Z,12.13
2019-06-01T14:42:03.931Z,11.80
2019-06-01T14:44:40.946Z,12.00
2019-06-01T14:47:08.563Z,12.00
2019-06-01T14:49:36.185Z,14.20
2019-06-01T14:52:04.143Z,13.37
2019-06-01T14:54:31.706Z,13.07
2019-06-01T14:56:59.335Z,13.23
2019-06-01T14:59:27.156Z,13.07
2019-06-01T15:01:56.442Z,13.57
2019-06-01T15:04:25.040Z,12.53
2019-06-01T15:06:52.699Z,11.70
2019-06-01T15:09:22.692Z,12.67
2019-06-01T15:11:50.700Z,12.60
2019-06-01T15:14:18.935Z,12.37
2019-06-01T15:16:49.559Z,12.20
2019-06-01T15:19:17.352Z,13.10
2019-06-01T15:21:44.991Z,12.87
2019-06-01T15:24:12.837Z,12.83
2019-06-01T15:26:41.866Z,15.90
2019-06-01T15:29:09.507Z,13.80
2019-06-01T15:31:38.748Z,14.90
2019-06-01T15:34:07.906Z,15.00
2019-06-01T15:36:35.875Z,15.93
2019-06-01T15:39:23.487Z,16.70
2019-06-01T15:41:38.549Z,16.37
2019-06-01T15:44:06.324Z,16.10
2019-06-01T15:46:36.263Z,15.10
2019-06-01T15:49:04.078Z,16.13
2019-06-01T15:51:32.925Z,15.13
2019-06-01T15:54:03.214Z,15.33
2019-06-01T15:56:31.036Z,16.00
2019-06-01T15:58:59.903Z,15.20
2019-06-01T16:01:28.267Z,16.60
2019-06-01T16:03:57.450Z,15.50
2019-06-01T16:06:25.131Z,14.53
2019-06-01T16:08:55.288Z,15.70
2019-06-01T16:11:24.379Z,16.43
2019-06-01T16:13:53.594Z,15.43
2019-06-01T16:16:21.738Z,17.27
2019-06-01T16:18:49.585Z,18.80
2019-06-01T16:21:19.120Z,19.07
2019-06-01T16:23:50.584Z,15.60
2019-06-01T16:26:24.226Z,15.20
2019-06-01T16:29:03.289Z,16.40
2019-06-01T16:31:32.930Z,16.10
2019-06-01T16:34:02.910Z,15.63
2019-06-01T16:36:31.316Z,13.03
2019-06-01T16:39:03.062Z,14.13
2019-06-01T16:41:31.114Z,12.83
2019-06-01T16:43:59.542Z,12.57
2019-06-01T16:46:27.661Z,14.87
2019-06-01T16:48:57.464Z,12.63
2019-06-01T16:51:25.409Z,11.73
2019-06-01T16:53:53.419Z,15.37
2019-06-01T16:56:21.061Z,21.23
2019-06-01T16:58:48.673Z,16.30
2019-06-01T17:01:16.924Z,13.00
2019-06-01T17:03:48.379Z,12.50
2019-06-01T17:06:16.003Z,11.70
2019-06-01T17:08:43.591Z,13.73
2019-06-01T17:11:11.370Z,13.33
2019-06-01T17:13:39.070Z,13.03
2019-06-01T17:16:07.232Z,12.27
2019-06-01T17:18:35.617Z,12.93
2019-06-01T17:21:07.611Z,13.10
2019-06-01T17:23:38.408Z,13.43
2019-06-01T17:26:07.253Z,14.80
2019-06-01T17:28:35.797Z,12.00
2019-06-01T17:31:04.320Z,13.87
2019-06-01T17:33:32.329Z,13.47
2019-06-01T17:36:02.909Z,12.40
2019-06-01T17:38:30.623Z,12.50
2019-06-01T17:40:58.201Z,13.27
2019-06-01T17:43:26.729Z,13.63
2019-06-01T17:45:54.353Z,14.77
2019-06-01T17:48:26.963Z,12.87
2019-06-01T17:50:51.446Z,12.53
2019-06-01T17:53:21.313Z,12.70
2019-06-01T17:55:48.901Z,12.67
2019-06-01T17:58:16.709Z,14.00
2019-06-01T18:00:45.841Z,14.60
2019-06-01T18:03:14.204Z,13.67
2019-06-01T18:05:42.641Z,15.70
2019-06-01T18:08:12.834Z,15.60
2019-06-01T18:10:53.482Z,15.20
2019-06-01T18:13:12.961Z,14.60
2019-06-01T18:15:40.778Z,14.40
2019-06-01T18:18:08.855Z,14.05
2019-06-01T18:20:36.761Z,14.50
2019-06-01T18:23:06.312Z,13.75
2019-06-01T18:25:34.421Z,13.50
2019-06-01T18:28:05.191Z,12.85
2019-06-01T18:30:34.303Z,13.28
2019-06-01T18:33:04.879Z,12.68
2019-06-01T18:35:33.439Z,13.62
2019-06-01T18:38:01.774Z,13.67
2019-06-01T18:40:30.592Z,13.50
2019-06-01T18:43:03.645Z,13.50
2019-06-01T18:45:32.018Z,13.50
2019-06-01T18:48:01.467Z,13.55
2019-06-01T18:50:29.249Z,13.08
2019-06-01T18:53:03.967Z,13.32
2019-06-01T18:55:35.592Z,14.07
2019-06-01T18:58:03.824Z,13.30
2019-06-01T19:00:32.092Z,13.40
2019-06-01T19:03:01.811Z,15.48
2019-06-01T19:05:38.339Z,13.93
2019-06-01T19:08:13.540Z,14.18
2019-06-01T19:10:41.946Z,14.50
2019-06-01T19:13:09.920Z,14.33
2019-06-01T19:15:38.845Z,12.75
2019-06-01T19:18:06.488Z,14.25
2019-06-01T19:20:35.152Z,13.80
2019-06-01T19:23:02.976Z,15.03
2019-06-01T19:25:31.033Z,14.98
2019-06-01T19:27:58.821Z,14.20
2019-06-01T19:30:38.628Z,14.28
2019-06-01T19:33:10.610Z,14.93
2019-06-01T19:35:38.516Z,14.13
2019-06-01T19:38:07.006Z,14.38
2019-06-01T19:40:36.916Z,14.38
2019-06-01T19:43:07.315Z,14.33
2019-06-01T19:45:35.728Z,15.75
2019-06-01T19:48:08.215Z,16.25
2019-06-01T19:50:38.816Z,14.25
2019-06-01T19:53:06.780Z,15.23
2019-06-01T19:55:46.705Z,15.20
2019-06-01T19:58:16.216Z,14.95
2019-06-01T20:00:47.932Z,15.32
2019-06-01T20:03:21.998Z,14.45
2019-06-01T20:05:50.916Z,14.03
2019-06-01T20:08:18.880Z,14.40
2019-06-01T20:10:49.585Z,13.72
2019-06-01T20:13:17.441Z,14.40
2019-06-01T20:15:46.073Z,14.20
2019-06-01T20:18:14.749Z,13.43
2019-06-01T20:20:42.567Z,14.38
2019-06-01T20:23:11.263Z,13.83
2019-06-01T20:25:40.423Z,14.70
2019-06-01T20:28:08.307Z,13.45
2019-06-01T20:30:35.891Z,14.85
2019-06-01T20:33:03.715Z,13.88
2019-06-01T20:35:31.508Z,15.05
2019-06-01T20:37:59.367Z,13.90
2019-06-01T20:40:27.993Z,14.50
2019-06-01T20:42:58.463Z,13.80
2019-06-01T20:45:26.602Z,14.20
2019-06-01T20:47:56.996Z,13.40
2019-06-01T20:50:27.827Z,15.03
2019-06-01T20:52:56.785Z,13.45
2019-06-01T20:55:24.431Z,13.78
2019-06-01T20:57:53.507Z,12.75
2019-06-01T21:00:21.798Z,12.70
2019-06-01T21:02:50.803Z,13.40
2019-06-01T21:05:18.397Z,13.32
2019-06-01T21:07:46.280Z,14.23
2019-06-01T21:10:16.150Z,13.00
2019-06-01T21:12:45.917Z,14.33
2019-06-01T21:15:15.164Z,13.78
2019-06-01T21:17:53.797Z,14.73
2019-06-01T21:20:28.572Z,12.73
2019-06-01T21:22:54.142Z,14.10
2019-06-01T21:25:25.403Z,14.13
2019-06-01T21:27:53.515Z,13.43
2019-06-01T21:30:23.006Z,14.73
2019-06-01T21:32:50.851Z,14.65
2019-06-01T21:35:19.332Z,14.93
2019-06-01T21:37:56.382Z,14.25
2019-06-01T21:40:23.955Z,15.13
2019-06-01T21:43:03.203Z,14.50
2019-06-01T21:45:23.779Z,13.78
2019-06-01T21:47:52.455Z,15.23
2019-06-01T21:50:21.909Z,14.80
2019-06-01T21:52:50.768Z,14.15
2019-06-01T21:55:18.444Z,14.75
2019-06-01T21:57:48.015Z,17.15
2019-06-01T22:00:30.456Z,17.65
2019-06-01T22:02:59.932Z,17.52
2019-06-01T22:05:28.630Z,18.98
2019-06-01T22:08:01.167Z,19.57
2019-06-01T22:10:29.167Z,19.95
2019-06-01T22:12:57.772Z,19.65
2019-06-01T22:15:25.887Z,19.73
2019-06-01T22:17:55.804Z,19.45
2019-06-01T22:20:24.053Z,18.25
2019-06-01T22:22:52.139Z,20.12
2019-06-01T22:25:22.252Z,19.07
2019-06-01T22:27:52.279Z,19.52
2019-06-01T22:30:22.273Z,17.90
2019-06-01T22:32:56.992Z,16.05
2019-06-01T22:35:24.787Z,18.07
2019-06-01T22:37:52.778Z,16.12
2019-06-01T22:40:56.427Z,15.72
2019-06-01T22:43:38.953Z,17.77
2019-06-01T22:45:54.891Z,18.57
2019-06-01T22:48:22.594Z,17.50
2019-06-01T22:50:51.434Z,17.80
2019-06-01T22:53:19.880Z,17.30
2019-06-01T22:55:48.511Z,18.07
2019-06-01T22:58:16.120Z,18.70
2019-06-01T23:00:45.426Z,18.10
2019-06-01T23:03:13.001Z,18.62
2019-06-01T23:05:58.613Z,18.30
2019-06-01T23:08:27.422Z,18.27
2019-06-01T23:10:57.123Z,18.37
2019-06-01T23:13:26.213Z,20.32
2019-06-01T23:15:54.266Z,17.67
2019-06-01T23:18:21.821Z,18.70
2019-06-01T23:20:50.777Z,18.92
2019-06-01T23:23:18.399Z,17.70
2019-06-01T23:25:46.961Z,17.45
2019-06-01T23:28:14.595Z,18.85
2019-06-01T23:30:45.187Z,17.60
2019-06-01T23:33:13.029Z,18.45
2019-06-01T23:35:40.650Z,18.82
2019-06-01T23:38:08.823Z,18.60
2019-06-01T23:40:36.392Z,20.65
2019-06-01T23:43:08.247Z,20.52
2019-06-01T23:45:35.997Z,20.90
2019-06-01T23:48:03.733Z,21.90
2019-06-01T23:50:32.691Z,21.30
2019-06-01T23:53:13.258Z,21.75
2019-06-01T23:55:32.448Z,19.73
2019-06-01T23:58:00.331Z,19.60
